sensor_id;sensor_type;location;lat;lon;timestamp;temperature;humidity
13296;DHT22;64850;60.390;-1.374;2022-12-18T00:01:22;6.30;99.90
13296;DHT22;64850;60.390;-1.374;2022-12-18T00:03:49;6.20;99.90
13296;DHT22;64850;60.390;-1.374;2022-12-18T00:06:16;6.10;99.90
13296;DHT22;64850;60.390;-1.374;2022-12-18T00:08:43;5.90;99.90
13296;DHT22;64850;60.390;-1.374;2022-12-18T00:11:15;5.80;99.90
13296;DHT22;64850;60.390;-1.374;2022-12-18T00:13:41;5.70;99.90
13296;DHT22;64850;60.390;-1.374;2022-12-18T00:16:10;5.80;99.90
13296;DHT22;64850;60.390;-1.374;2022-12-18T00:18:37;5.40;99.90
13296;DHT22;64850;60.390;-1.374;2022-12-18T00:21:06;5.50;99.90
13296;DHT22;64850;60.390;-1.374;2022-12-18T00:23:35;5.40;99.90
13296;DHT22;64850;60.390;-1.374;2022-12-18T00:26:07;4.90;99.90
13296;DHT22;64850;60.390;-1.374;2022-12-18T00:28:33;4.80;99.90
13296;DHT22;64850;60.390;-1.374;2022-12-18T00:31:07;5.10;99.90
13296;DHT22;64850;60.390;-1.374;2022-12-18T00:33:35;5.00;99.90
13296;DHT22;64850;60.390;-1.374;2022-12-18T00:36:06;4.90;99.90
13296;DHT22;64850;60.390;-1.374;2022-12-18T00:38:33;4.90;99.90
13296;DHT22;64850;60.390;-1.374;2022-12-18T00:40:59;4.90;99.90
13296;DHT22;64850;60.390;-1.374;2022-12-18T00:43:25;4.80;99.90
13296;DHT22;64850;60.390;-1.374;2022-12-18T00:45:50;4.90;99.90
13296;DHT22;64850;60.390;-1.374;2022-12-18T00:48:16;4.90;99.90
13296;DHT22;64850;60.390;-1.374;2022-12-18T00:50:42;4.80;99.90
13296;DHT22;64850;60.390;-1.374;2022-12-18T00:53:08;4.60;99.90
13296;DHT22;64850;60.390;-1.374;2022-12-18T00:55:40;4.60;99.90
13296;DHT22;64850;60.390;-1.374;2022-12-18T00:58:07;4.60;99.90
13296;DHT22;64850;60.390;-1.374;2022-12-18T01:00:33;4.50;99.90
13296;DHT22;64850;60.390;-1.374;2022-12-18T01:02:59;4.40;99.90
13296;DHT22;64850;60.390;-1.374;2022-12-18T01:05:26;4.40;99.90
13296;DHT22;64850;60.390;-1.374;2022-12-18T01:07:52;4.30;99.90
13296;DHT22;64850;60.390;-1.374;2022-12-18T01:10:18;4.20;99.90
13296;DHT22;64850;60.390;-1.374;2022-12-18T01:12:43;4.20;99.90
13296;DHT22;64850;60.390;-1.374;2022-12-18T01:15:10;4.10;99.90
13296;DHT22;64850;60.390;-1.374;2022-12-18T01:17:37;4.10;99.90
13296;DHT22;64850;60.390;-1.374;2022-12-18T01:20:03;4.10;99.90
13296;DHT22;64850;60.390;-1.374;2022-12-18T01:22:29;4.10;99.90
13296;DHT22;64850;60.390;-1.374;2022-12-18T01:24:55;4.10;99.90
13296;DHT22;64850;60.390;-1.374;2022-12-18T01:27:21;4.10;99.90
13296;DHT22;64850;60.390;-1.374;2022-12-18T01:29:47;4.00;99.90
13296;DHT22;64850;60.390;-1.374;2022-12-18T01:32:12;4.10;99.90
13296;DHT22;64850;60.390;-1.374;2022-12-18T01:34:38;4.20;99.90
13296;DHT22;64850;60.390;-1.374;2022-12-18T01:37:11;4.10;99.90
13296;DHT22;64850;60.390;-1.374;2022-12-18T01:39:36;4.10;99.90
13296;DHT22;64850;60.390;-1.374;2022-12-18T01:42:03;4.10;99.90
13296;DHT22;64850;60.390;-1.374;2022-12-18T01:50:00;3.90;99.90
13296;DHT22;64850;60.390;-1.374;2022-12-18T01:52:29;3.90;99.90
13296;DHT22;64850;60.390;-1.374;2022-12-18T01:54:57;3.90;99.90
13296;DHT22;64850;60.390;-1.374;2022-12-18T01:57:24;3.80;99.90
13296;DHT22;64850;60.390;-1.374;2022-12-18T01:59:52;3.80;99.90
13296;DHT22;64850;60.390;-1.374;2022-12-18T02:02:20;3.80;99.90
13296;DHT22;64850;60.390;-1.374;2022-12-18T02:04:46;3.70;99.90
13296;DHT22;64850;60.390;-1.374;2022-12-18T02:10:00;3.80;99.90
13296;DHT22;64850;60.390;-1.374;2022-12-18T02:15:15;4.00;99.90
13296;DHT22;64850;60.390;-1.374;2022-12-18T02:17:50;4.30;99.90
13296;DHT22;64850;60.390;-1.374;2022-12-18T02:20:23;4.30;99.90
13296;DHT22;64850;60.390;-1.374;2022-12-18T02:26:35;4.10;99.90
13296;DHT22;64850;60.390;-1.374;2022-12-18T02:29:10;4.00;99.90
13296;DHT22;64850;60.390;-1.374;2022-12-18T02:31:51;4.00;99.90
13296;DHT22;64850;60.390;-1.374;2022-12-18T02:34:18;4.00;99.90
13296;DHT22;64850;60.390;-1.374;2022-12-18T02:36:46;4.00;99.90
13296;DHT22;64850;60.390;-1.374;2022-12-18T02:39:14;4.10;99.90
13296;DHT22;64850;60.390;-1.374;2022-12-18T02:41:41;4.10;99.90
13296;DHT22;64850;60.390;-1.374;2022-12-18T02:44:11;4.10;99.90
13296;DHT22;64850;60.390;-1.374;2022-12-18T02:46:48;4.20;99.90
13296;DHT22;64850;60.390;-1.374;2022-12-18T02:55:34;4.30;99.90
13296;DHT22;64850;60.390;-1.374;2022-12-18T02:58:30;4.40;99.90
13296;DHT22;64850;60.390;-1.374;2022-12-18T03:03:31;4.30;99.90
13296;DHT22;64850;60.390;-1.374;2022-12-18T03:06:23;4.30;99.90
13296;DHT22;64850;60.390;-1.374;2022-12-18T03:08:54;4.30;99.90
13296;DHT22;64850;60.390;-1.374;2022-12-18T03:11:22;4.30;99.90
13296;DHT22;64850;60.390;-1.374;2022-12-18T03:14:13;4.20;99.90
13296;DHT22;64850;60.390;-1.374;2022-12-18T03:16:41;4.10;99.90
13296;DHT22;64850;60.390;-1.374;2022-12-18T03:19:14;4.00;99.90
13296;DHT22;64850;60.390;-1.374;2022-12-18T03:21:44;3.90;99.90
13296;DHT22;64850;60.390;-1.374;2022-12-18T03:24:11;3.90;99.90
13296;DHT22;64850;60.390;-1.374;2022-12-18T03:26:40;3.70;99.90
13296;DHT22;64850;60.390;-1.374;2022-12-18T03:29:11;3.60;99.90
13296;DHT22;64850;60.390;-1.374;2022-12-18T03:31:40;3.60;99.90
13296;DHT22;64850;60.390;-1.374;2022-12-18T03:34:20;3.60;99.90
13296;DHT22;64850;60.390;-1.374;2022-12-18T03:36:47;3.60;99.90
13296;DHT22;64850;60.390;-1.374;2022-12-18T03:39:13;3.50;99.90
13296;DHT22;64850;60.390;-1.374;2022-12-18T03:44:41;3.70;99.90
13296;DHT22;64850;60.390;-1.374;2022-12-18T03:47:14;3.80;99.90
13296;DHT22;64850;60.390;-1.374;2022-12-18T03:52:31;3.90;99.90
13296;DHT22;64850;60.390;-1.374;2022-12-18T03:55:01;3.90;99.90
13296;DHT22;64850;60.390;-1.374;2022-12-18T03:57:30;4.00;99.90
13296;DHT22;64850;60.390;-1.374;2022-12-18T04:00:08;4.10;99.90
13296;DHT22;64850;60.390;-1.374;2022-12-18T04:02:35;4.10;99.90
13296;DHT22;64850;60.390;-1.374;2022-12-18T04:05:07;4.10;99.90
13296;DHT22;64850;60.390;-1.374;2022-12-18T04:07:35;4.10;99.90
13296;DHT22;64850;60.390;-1.374;2022-12-18T04:10:02;4.20;99.90
13296;DHT22;64850;60.390;-1.374;2022-12-18T04:12:29;4.20;99.90
13296;DHT22;64850;60.390;-1.374;2022-12-18T04:14:55;4.20;99.90
13296;DHT22;64850;60.390;-1.374;2022-12-18T04:17:21;4.30;99.90
13296;DHT22;64850;60.390;-1.374;2022-12-18T04:19:48;4.40;99.90
13296;DHT22;64850;60.390;-1.374;2022-12-18T04:22:13;4.40;99.90
13296;DHT22;64850;60.390;-1.374;2022-12-18T04:24:39;4.40;99.90
13296;DHT22;64850;60.390;-1.374;2022-12-18T04:27:06;4.30;99.90
13296;DHT22;64850;60.390;-1.374;2022-12-18T04:29:32;4.40;99.90
13296;DHT22;64850;60.390;-1.374;2022-12-18T04:31:58;4.40;99.90
13296;DHT22;64850;60.390;-1.374;2022-12-18T04:34:24;4.40;99.90
13296;DHT22;64850;60.390;-1.374;2022-12-18T04:36:50;4.30;99.90
13296;DHT22;64850;60.390;-1.374;2022-12-18T04:39:15;4.30;99.90
13296;DHT22;64850;60.390;-1.374;2022-12-18T04:41:44;4.40;99.90
13296;DHT22;64850;60.390;-1.374;2022-12-18T04:44:10;4.30;99.90
13296;DHT22;64850;60.390;-1.374;2022-12-18T04:46:36;4.30;99.90
13296;DHT22;64850;60.390;-1.374;2022-12-18T04:49:02;4.40;99.90
13296;DHT22;64850;60.390;-1.374;2022-12-18T04:51:35;4.30;99.90
13296;DHT22;64850;60.390;-1.374;2022-12-18T04:54:01;4.30;99.90
13296;DHT22;64850;60.390;-1.374;2022-12-18T04:56:27;4.30;99.90
13296;DHT22;64850;60.390;-1.374;2022-12-18T04:58:53;3.50;99.90
13296;DHT22;64850;60.390;-1.374;2022-12-18T05:01:19;4.50;99.90
13296;DHT22;64850;60.390;-1.374;2022-12-18T05:03:45;4.40;99.90
13296;DHT22;64850;60.390;-1.374;2022-12-18T05:06:11;4.40;99.90
13296;DHT22;64850;60.390;-1.374;2022-12-18T05:08:36;4.40;99.90
13296;DHT22;64850;60.390;-1.374;2022-12-18T05:11:06;4.40;99.90
13296;DHT22;64850;60.390;-1.374;2022-12-18T05:13:32;4.40;99.90
13296;DHT22;64850;60.390;-1.374;2022-12-18T05:15:58;4.40;99.90
13296;DHT22;64850;60.390;-1.374;2022-12-18T05:18:25;4.40;99.90
13296;DHT22;64850;60.390;-1.374;2022-12-18T05:20:52;4.30;99.90
13296;DHT22;64850;60.390;-1.374;2022-12-18T05:23:19;4.30;99.90
13296;DHT22;64850;60.390;-1.374;2022-12-18T05:25:56;4.30;99.90
13296;DHT22;64850;60.390;-1.374;2022-12-18T05:28:23;4.20;99.90
13296;DHT22;64850;60.390;-1.374;2022-12-18T05:30:50;4.20;99.90
13296;DHT22;64850;60.390;-1.374;2022-12-18T05:33:17;4.00;99.90
13296;DHT22;64850;60.390;-1.374;2022-12-18T05:35:43;3.90;99.90
13296;DHT22;64850;60.390;-1.374;2022-12-18T05:38:09;4.00;99.90
13296;DHT22;64850;60.390;-1.374;2022-12-18T05:40:35;4.00;99.90
13296;DHT22;64850;60.390;-1.374;2022-12-18T05:43:02;4.00;99.90
13296;DHT22;64850;60.390;-1.374;2022-12-18T05:45:37;3.70;99.90
13296;DHT22;64850;60.390;-1.374;2022-12-18T05:48:03;3.70;99.90
13296;DHT22;64850;60.390;-1.374;2022-12-18T05:50:29;3.70;99.90
13296;DHT22;64850;60.390;-1.374;2022-12-18T05:52:55;3.70;99.90
13296;DHT22;64850;60.390;-1.374;2022-12-18T05:55:21;3.60;99.90
13296;DHT22;64850;60.390;-1.374;2022-12-18T05:57:47;3.60;99.90
13296;DHT22;64850;60.390;-1.374;2022-12-18T06:00:13;3.60;99.90
13296;DHT22;64850;60.390;-1.374;2022-12-18T06:02:39;3.60;99.90
13296;DHT22;64850;60.390;-1.374;2022-12-18T06:05:05;3.60;99.90
13296;DHT22;64850;60.390;-1.374;2022-12-18T06:07:31;3.60;99.90
13296;DHT22;64850;60.390;-1.374;2022-12-18T06:09:57;3.70;99.90
13296;DHT22;64850;60.390;-1.374;2022-12-18T06:12:22;3.70;99.90
13296;DHT22;64850;60.390;-1.374;2022-12-18T06:14:48;3.60;99.90
13296;DHT22;64850;60.390;-1.374;2022-12-18T06:17:14;3.60;99.90
13296;DHT22;64850;60.390;-1.374;2022-12-18T06:19:43;3.50;99.90
13296;DHT22;64850;60.390;-1.374;2022-12-18T06:22:09;3.50;99.90
13296;DHT22;64850;60.390;-1.374;2022-12-18T06:24:34;3.50;99.90
13296;DHT22;64850;60.390;-1.374;2022-12-18T06:27:00;3.50;99.90
13296;DHT22;64850;60.390;-1.374;2022-12-18T06:29:26;3.50;99.90
13296;DHT22;64850;60.390;-1.374;2022-12-18T06:31:52;3.40;99.90
13296;DHT22;64850;60.390;-1.374;2022-12-18T06:34:18;3.80;99.90
13296;DHT22;64850;60.390;-1.374;2022-12-18T06:36:43;3.70;99.90
13296;DHT22;64850;60.390;-1.374;2022-12-18T06:39:12;3.70;99.90
13296;DHT22;64850;60.390;-1.374;2022-12-18T06:41:38;3.70;99.90
13296;DHT22;64850;60.390;-1.374;2022-12-18T06:44:04;3.70;99.90
13296;DHT22;64850;60.390;-1.374;2022-12-18T06:46:30;3.70;99.90
13296;DHT22;64850;60.390;-1.374;2022-12-18T06:48:57;3.60;99.90
13296;DHT22;64850;60.390;-1.374;2022-12-18T06:51:24;3.60;99.90
13296;DHT22;64850;60.390;-1.374;2022-12-18T06:53:50;3.50;99.90
13296;DHT22;64850;60.390;-1.374;2022-12-18T06:56:16;3.50;99.90
13296;DHT22;64850;60.390;-1.374;2022-12-18T06:58:42;3.50;99.90
13296;DHT22;64850;60.390;-1.374;2022-12-18T07:01:10;3.60;99.90
13296;DHT22;64850;60.390;-1.374;2022-12-18T07:03:39;3.60;99.90
13296;DHT22;64850;60.390;-1.374;2022-12-18T07:06:06;3.60;99.90
13296;DHT22;64850;60.390;-1.374;2022-12-18T07:08:32;3.60;99.90
13296;DHT22;64850;60.390;-1.374;2022-12-18T07:10:58;3.50;99.90
13296;DHT22;64850;60.390;-1.374;2022-12-18T07:13:24;3.60;99.90
13296;DHT22;64850;60.390;-1.374;2022-12-18T07:15:50;3.60;99.90
13296;DHT22;64850;60.390;-1.374;2022-12-18T07:18:15;3.50;99.90
13296;DHT22;64850;60.390;-1.374;2022-12-18T07:20:41;3.50;99.90
13296;DHT22;64850;60.390;-1.374;2022-12-18T07:23:07;3.50;99.90
13296;DHT22;64850;60.390;-1.374;2022-12-18T07:25:36;3.50;99.90
13296;DHT22;64850;60.390;-1.374;2022-12-18T07:28:03;3.50;99.90
13296;DHT22;64850;60.390;-1.374;2022-12-18T07:30:29;3.50;99.90
13296;DHT22;64850;60.390;-1.374;2022-12-18T07:32:55;3.50;99.90
13296;DHT22;64850;60.390;-1.374;2022-12-18T07:35:21;3.50;99.90
13296;DHT22;64850;60.390;-1.374;2022-12-18T07:37:47;3.50;99.90
13296;DHT22;64850;60.390;-1.374;2022-12-18T07:40:13;3.50;99.90
13296;DHT22;64850;60.390;-1.374;2022-12-18T07:42:39;3.40;99.90
13296;DHT22;64850;60.390;-1.374;2022-12-18T07:45:05;3.40;99.90
13296;DHT22;64850;60.390;-1.374;2022-12-18T07:47:31;3.40;99.90
13296;DHT22;64850;60.390;-1.374;2022-12-18T07:49:59;3.30;99.90
13296;DHT22;64850;60.390;-1.374;2022-12-18T07:52:25;3.40;99.90
13296;DHT22;64850;60.390;-1.374;2022-12-18T07:54:50;3.50;99.90
13296;DHT22;64850;60.390;-1.374;2022-12-18T07:57:17;3.50;99.90
13296;DHT22;64850;60.390;-1.374;2022-12-18T07:59:43;3.60;99.90
13296;DHT22;64850;60.390;-1.374;2022-12-18T08:02:09;3.60;99.90
13296;DHT22;64850;60.390;-1.374;2022-12-18T08:04:35;3.50;99.90
13296;DHT22;64850;60.390;-1.374;2022-12-18T08:07:00;1.90;99.90
13296;DHT22;64850;60.390;-1.374;2022-12-18T08:09:26;3.50;99.90
13296;DHT22;64850;60.390;-1.374;2022-12-18T08:11:52;3.50;99.90
13296;DHT22;64850;60.390;-1.374;2022-12-18T08:14:18;3.40;99.90
13296;DHT22;64850;60.390;-1.374;2022-12-18T08:16:44;3.30;99.90
13296;DHT22;64850;60.390;-1.374;2022-12-18T08:19:10;3.30;99.90
13296;DHT22;64850;60.390;-1.374;2022-12-18T08:21:35;3.20;99.90
13296;DHT22;64850;60.390;-1.374;2022-12-18T08:24:02;3.10;99.90
13296;DHT22;64850;60.390;-1.374;2022-12-18T08:26:30;1.90;99.90
13296;DHT22;64850;60.390;-1.374;2022-12-18T08:28:58;3.10;99.90
13296;DHT22;64850;60.390;-1.374;2022-12-18T08:31:26;3.00;99.90
13296;DHT22;64850;60.390;-1.374;2022-12-18T08:33:52;3.00;99.90
13296;DHT22;64850;60.390;-1.374;2022-12-18T08:36:19;3.00;99.90
13296;DHT22;64850;60.390;-1.374;2022-12-18T08:38:45;2.90;99.90
13296;DHT22;64850;60.390;-1.374;2022-12-18T08:41:13;3.00;99.90
13296;DHT22;64850;60.390;-1.374;2022-12-18T08:43:40;3.10;99.90
13296;DHT22;64850;60.390;-1.374;2022-12-18T08:46:26;3.10;99.90
13296;DHT22;64850;60.390;-1.374;2022-12-18T08:48:53;3.00;99.90
13296;DHT22;64850;60.390;-1.374;2022-12-18T08:51:21;2.90;99.90
13296;DHT22;64850;60.390;-1.374;2022-12-18T08:53:47;2.90;99.90
13296;DHT22;64850;60.390;-1.374;2022-12-18T08:56:14;2.80;99.90
13296;DHT22;64850;60.390;-1.374;2022-12-18T08:58:40;2.90;99.90
13296;DHT22;64850;60.390;-1.374;2022-12-18T09:01:09;3.00;99.90
13296;DHT22;64850;60.390;-1.374;2022-12-18T09:03:35;3.00;99.90
13296;DHT22;64850;60.390;-1.374;2022-12-18T09:06:01;3.10;99.90
13296;DHT22;64850;60.390;-1.374;2022-12-18T09:08:27;3.10;99.90
13296;DHT22;64850;60.390;-1.374;2022-12-18T09:10:53;3.10;99.90
13296;DHT22;64850;60.390;-1.374;2022-12-18T09:13:21;3.10;99.90
13296;DHT22;64850;60.390;-1.374;2022-12-18T09:15:52;3.50;99.90
13296;DHT22;64850;60.390;-1.374;2022-12-18T09:18:20;3.20;99.90
13296;DHT22;64850;60.390;-1.374;2022-12-18T09:20:46;3.40;99.90
13296;DHT22;64850;60.390;-1.374;2022-12-18T09:23:13;3.50;99.90
13296;DHT22;64850;60.390;-1.374;2022-12-18T09:25:39;3.50;99.90
13296;DHT22;64850;60.390;-1.374;2022-12-18T09:28:10;3.50;99.90
13296;DHT22;64850;60.390;-1.374;2022-12-18T09:30:42;3.40;99.90
13296;DHT22;64850;60.390;-1.374;2022-12-18T09:33:09;3.30;99.90
13296;DHT22;64850;60.390;-1.374;2022-12-18T09:35:40;1.80;99.90
13296;DHT22;64850;60.390;-1.374;2022-12-18T09:38:07;3.30;99.90
13296;DHT22;64850;60.390;-1.374;2022-12-18T09:40:36;3.40;99.90
13296;DHT22;64850;60.390;-1.374;2022-12-18T09:43:06;3.30;99.90
13296;DHT22;64850;60.390;-1.374;2022-12-18T09:45:40;3.10;99.90
13296;DHT22;64850;60.390;-1.374;2022-12-18T09:48:24;3.30;99.90
13296;DHT22;64850;60.390;-1.374;2022-12-18T09:50:55;3.30;99.90
13296;DHT22;64850;60.390;-1.374;2022-12-18T09:53:26;3.40;99.90
13296;DHT22;64850;60.390;-1.374;2022-12-18T09:55:54;3.40;99.90
13296;DHT22;64850;60.390;-1.374;2022-12-18T09:58:43;3.30;99.90
13296;DHT22;64850;60.390;-1.374;2022-12-18T10:01:16;3.40;99.90
13296;DHT22;64850;60.390;-1.374;2022-12-18T10:03:43;3.40;99.90
13296;DHT22;64850;60.390;-1.374;2022-12-18T10:08:59;3.40;99.90
13296;DHT22;64850;60.390;-1.374;2022-12-18T10:12:19;3.50;99.90
13296;DHT22;64850;60.390;-1.374;2022-12-18T10:17:28;3.60;99.90
13296;DHT22;64850;60.390;-1.374;2022-12-18T10:28:13;3.80;99.90
13296;DHT22;64850;60.390;-1.374;2022-12-18T10:30:41;3.80;99.90
13296;DHT22;64850;60.390;-1.374;2022-12-18T10:33:13;3.80;99.90
13296;DHT22;64850;60.390;-1.374;2022-12-18T10:35:43;3.90;99.90
13296;DHT22;64850;60.390;-1.374;2022-12-18T10:40:55;4.00;99.90
13296;DHT22;64850;60.390;-1.374;2022-12-18T10:43:28;4.00;99.90
13296;DHT22;64850;60.390;-1.374;2022-12-18T10:48:55;4.10;99.90
13296;DHT22;64850;60.390;-1.374;2022-12-18T10:56:27;5.00;99.90
13296;DHT22;64850;60.390;-1.374;2022-12-18T10:59:02;4.40;99.90
13296;DHT22;64850;60.390;-1.374;2022-12-18T11:04:22;4.60;99.90
13296;DHT22;64850;60.390;-1.374;2022-12-18T11:07:18;4.60;99.90
13296;DHT22;64850;60.390;-1.374;2022-12-18T11:09:44;4.70;99.90
13296;DHT22;64850;60.390;-1.374;2022-12-18T11:12:24;4.70;99.90
13296;DHT22;64850;60.390;-1.374;2022-12-18T11:14:54;4.70;99.90
13296;DHT22;64850;60.390;-1.374;2022-12-18T11:17:31;4.70;99.90
13296;DHT22;64850;60.390;-1.374;2022-12-18T11:20:06;4.80;99.90
13296;DHT22;64850;60.390;-1.374;2022-12-18T11:22:35;4.70;99.90
13296;DHT22;64850;60.390;-1.374;2022-12-18T11:27:31;4.70;99.90
13296;DHT22;64850;60.390;-1.374;2022-12-18T11:32:54;4.70;99.90
13296;DHT22;64850;60.390;-1.374;2022-12-18T11:35:34;4.70;99.90
13296;DHT22;64850;60.390;-1.374;2022-12-18T11:38:13;4.60;99.90
13296;DHT22;64850;60.390;-1.374;2022-12-18T11:40:45;4.70;99.90
13296;DHT22;64850;60.390;-1.374;2022-12-18T11:43:27;4.70;99.90
13296;DHT22;64850;60.390;-1.374;2022-12-18T11:46:16;4.80;99.90
13296;DHT22;64850;60.390;-1.374;2022-12-18T11:49:03;4.90;99.90
13296;DHT22;64850;60.390;-1.374;2022-12-18T11:51:42;5.00;99.90
13296;DHT22;64850;60.390;-1.374;2022-12-18T11:54:15;5.00;99.90
13296;DHT22;64850;60.390;-1.374;2022-12-18T12:07:57;5.30;99.90
13296;DHT22;64850;60.390;-1.374;2022-12-18T12:11:20;5.20;99.90
13296;DHT22;64850;60.390;-1.374;2022-12-18T12:13:34;5.20;99.90
13296;DHT22;64850;60.390;-1.374;2022-12-18T12:16:13;5.40;99.90
13296;DHT22;64850;60.390;-1.374;2022-12-18T12:21:41;5.60;99.90
13296;DHT22;64850;60.390;-1.374;2022-12-18T12:30:35;5.80;99.90
13296;DHT22;64850;60.390;-1.374;2022-12-18T12:38:31;5.70;99.90
13296;DHT22;64850;60.390;-1.374;2022-12-18T12:41:02;5.60;99.90
13296;DHT22;64850;60.390;-1.374;2022-12-18T12:43:43;5.60;99.90
13296;DHT22;64850;60.390;-1.374;2022-12-18T12:46:11;5.50;99.90
13296;DHT22;64850;60.390;-1.374;2022-12-18T12:48:48;5.50;99.90
13296;DHT22;64850;60.390;-1.374;2022-12-18T12:53:41;5.50;99.90
13296;DHT22;64850;60.390;-1.374;2022-12-18T12:56:08;5.50;99.90
13296;DHT22;64850;60.390;-1.374;2022-12-18T13:04:43;5.40;99.90
13296;DHT22;64850;60.390;-1.374;2022-12-18T13:07:35;5.40;99.90
13296;DHT22;64850;60.390;-1.374;2022-12-18T13:15:49;5.40;99.90
13296;DHT22;64850;60.390;-1.374;2022-12-18T13:18:32;5.40;99.90
13296;DHT22;64850;60.390;-1.374;2022-12-18T13:25:50;5.30;99.90
13296;DHT22;64850;60.390;-1.374;2022-12-18T13:36:38;5.40;99.90
13296;DHT22;64850;60.390;-1.374;2022-12-18T13:39:20;5.50;99.90
13296;DHT22;64850;60.390;-1.374;2022-12-18T13:41:49;5.70;99.90
13296;DHT22;64850;60.390;-1.374;2022-12-18T13:44:33;5.70;99.90
13296;DHT22;64850;60.390;-1.374;2022-12-18T13:47:04;5.70;99.90
13296;DHT22;64850;60.390;-1.374;2022-12-18T13:49:40;5.70;99.90
13296;DHT22;64850;60.390;-1.374;2022-12-18T13:52:24;5.80;99.90
13296;DHT22;64850;60.390;-1.374;2022-12-18T13:55:01;5.70;99.90
13296;DHT22;64850;60.390;-1.374;2022-12-18T13:57:38;5.80;99.90
13296;DHT22;64850;60.390;-1.374;2022-12-18T14:00:33;5.80;99.90
13296;DHT22;64850;60.390;-1.374;2022-12-18T14:03:00;5.80;99.90
13296;DHT22;64850;60.390;-1.374;2022-12-18T14:05:31;5.70;99.90
13296;DHT22;64850;60.390;-1.374;2022-12-18T14:08:05;5.70;99.90
13296;DHT22;64850;60.390;-1.374;2022-12-18T14:10:32;5.80;99.90
13296;DHT22;64850;60.390;-1.374;2022-12-18T14:13:04;5.80;99.90
13296;DHT22;64850;60.390;-1.374;2022-12-18T14:15:42;5.80;99.90
13296;DHT22;64850;60.390;-1.374;2022-12-18T14:18:30;5.90;99.90
13296;DHT22;64850;60.390;-1.374;2022-12-18T14:21:00;5.90;99.90
13296;DHT22;64850;60.390;-1.374;2022-12-18T14:25:52;5.70;99.90
13296;DHT22;64850;60.390;-1.374;2022-12-18T14:28:18;5.70;99.90
13296;DHT22;64850;60.390;-1.374;2022-12-18T14:30:45;5.60;99.90
13296;DHT22;64850;60.390;-1.374;2022-12-18T14:33:16;5.70;99.90
13296;DHT22;64850;60.390;-1.374;2022-12-18T14:36:01;5.70;99.90
13296;DHT22;64850;60.390;-1.374;2022-12-18T14:41:11;4.40;99.90
13296;DHT22;64850;60.390;-1.374;2022-12-18T14:43:39;5.80;99.90
13296;DHT22;64850;60.390;-1.374;2022-12-18T14:46:25;5.70;99.90
13296;DHT22;64850;60.390;-1.374;2022-12-18T14:48:51;5.80;99.90
13296;DHT22;64850;60.390;-1.374;2022-12-18T14:51:28;5.80;99.90
13296;DHT22;64850;60.390;-1.374;2022-12-18T14:53:59;5.80;99.90
13296;DHT22;64850;60.390;-1.374;2022-12-18T14:56:31;5.90;99.90
13296;DHT22;64850;60.390;-1.374;2022-12-18T14:59:15;5.90;99.90
13296;DHT22;64850;60.390;-1.374;2022-12-18T15:04:38;6.10;99.90
13296;DHT22;64850;60.390;-1.374;2022-12-18T15:09:38;6.10;99.90
13296;DHT22;64850;60.390;-1.374;2022-12-18T15:12:05;6.10;99.90
13296;DHT22;64850;60.390;-1.374;2022-12-18T15:14:39;6.10;99.90
13296;DHT22;64850;60.390;-1.374;2022-12-18T15:19:43;6.10;99.90
13296;DHT22;64850;60.390;-1.374;2022-12-18T15:24:44;6.10;99.90
13296;DHT22;64850;60.390;-1.374;2022-12-18T15:27:26;6.10;99.90
13296;DHT22;64850;60.390;-1.374;2022-12-18T15:32:35;6.20;99.90
13296;DHT22;64850;60.390;-1.374;2022-12-18T15:37:40;6.30;99.90
13296;DHT22;64850;60.390;-1.374;2022-12-18T15:40:17;6.30;99.90
13296;DHT22;64850;60.390;-1.374;2022-12-18T15:42:43;6.40;99.90
13296;DHT22;64850;60.390;-1.374;2022-12-18T15:45:28;6.00;99.90
13296;DHT22;64850;60.390;-1.374;2022-12-18T15:47:54;6.40;99.90
13296;DHT22;64850;60.390;-1.374;2022-12-18T15:50:20;6.40;99.90
13296;DHT22;64850;60.390;-1.374;2022-12-18T15:52:48;6.40;99.90
13296;DHT22;64850;60.390;-1.374;2022-12-18T15:55:19;6.40;99.90
13296;DHT22;64850;60.390;-1.374;2022-12-18T15:58:04;6.30;99.90
13296;DHT22;64850;60.390;-1.374;2022-12-18T16:00:32;6.50;99.90
13296;DHT22;64850;60.390;-1.374;2022-12-18T16:02:58;6.60;99.90
13296;DHT22;64850;60.390;-1.374;2022-12-18T16:05:24;6.60;99.90
13296;DHT22;64850;60.390;-1.374;2022-12-18T16:07:51;6.60;99.90
13296;DHT22;64850;60.390;-1.374;2022-12-18T16:10:17;6.70;99.90
13296;DHT22;64850;60.390;-1.374;2022-12-18T16:12:43;7.40;99.90
13296;DHT22;64850;60.390;-1.374;2022-12-18T16:15:12;6.60;99.90
13296;DHT22;64850;60.390;-1.374;2022-12-18T16:17:39;6.60;99.90
13296;DHT22;64850;60.390;-1.374;2022-12-18T16:20:16;6.50;99.90
13296;DHT22;64850;60.390;-1.374;2022-12-18T16:32:44;6.60;99.90
13296;DHT22;64850;60.390;-1.374;2022-12-18T16:35:21;6.70;99.90
13296;DHT22;64850;60.390;-1.374;2022-12-18T16:38:08;6.50;99.90
13296;DHT22;64850;60.390;-1.374;2022-12-18T16:40:33;6.60;99.90
13296;DHT22;64850;60.390;-1.374;2022-12-18T16:43:19;6.50;99.90
13296;DHT22;64850;60.390;-1.374;2022-12-18T16:45:45;6.60;99.90
13296;DHT22;64850;60.390;-1.374;2022-12-18T16:48:11;6.60;99.90
13296;DHT22;64850;60.390;-1.374;2022-12-18T16:50:37;6.70;99.90
13296;DHT22;64850;60.390;-1.374;2022-12-18T16:53:03;6.60;99.90
13296;DHT22;64850;60.390;-1.374;2022-12-18T16:55:29;6.60;99.90
13296;DHT22;64850;60.390;-1.374;2022-12-18T16:57:54;6.60;99.90
13296;DHT22;64850;60.390;-1.374;2022-12-18T17:00:20;6.70;99.90
13296;DHT22;64850;60.390;-1.374;2022-12-18T17:02:46;6.70;99.90
13296;DHT22;64850;60.390;-1.374;2022-12-18T17:05:12;6.80;99.90
13296;DHT22;64850;60.390;-1.374;2022-12-18T17:07:38;6.80;99.90
13296;DHT22;64850;60.390;-1.374;2022-12-18T17:10:04;6.90;99.90
13296;DHT22;64850;60.390;-1.374;2022-12-18T17:12:30;7.00;99.90
13296;DHT22;64850;60.390;-1.374;2022-12-18T17:14:56;6.90;99.90
13296;DHT22;64850;60.390;-1.374;2022-12-18T17:17:22;6.90;99.90
13296;DHT22;64850;60.390;-1.374;2022-12-18T17:19:51;6.90;99.90
13296;DHT22;64850;60.390;-1.374;2022-12-18T17:22:18;6.80;99.90
13296;DHT22;64850;60.390;-1.374;2022-12-18T17:24:45;6.60;99.90
13296;DHT22;64850;60.390;-1.374;2022-12-18T17:27:11;6.70;99.90
13296;DHT22;64850;60.390;-1.374;2022-12-18T17:29:37;6.60;99.90
13296;DHT22;64850;60.390;-1.374;2022-12-18T17:32:03;6.50;99.90
13296;DHT22;64850;60.390;-1.374;2022-12-18T17:34:29;6.60;99.90
13296;DHT22;64850;60.390;-1.374;2022-12-18T17:36:55;6.50;99.90
13296;DHT22;64850;60.390;-1.374;2022-12-18T17:39:21;6.50;99.90
13296;DHT22;64850;60.390;-1.374;2022-12-18T17:41:48;6.40;99.90
13296;DHT22;64850;60.390;-1.374;2022-12-18T17:44:14;6.30;99.90
13296;DHT22;64850;60.390;-1.374;2022-12-18T17:46:41;6.20;99.90
13296;DHT22;64850;60.390;-1.374;2022-12-18T17:49:07;6.30;99.90
13296;DHT22;64850;60.390;-1.374;2022-12-18T17:51:32;4.60;99.90
13296;DHT22;64850;60.390;-1.374;2022-12-18T17:53:59;6.30;99.90
13296;DHT22;64850;60.390;-1.374;2022-12-18T17:56:25;6.30;99.90
13296;DHT22;64850;60.390;-1.374;2022-12-18T17:58:53;6.20;99.90
13296;DHT22;64850;60.390;-1.374;2022-12-18T18:01:22;6.20;99.90
13296;DHT22;64850;60.390;-1.374;2022-12-18T18:03:48;6.30;99.90
13296;DHT22;64850;60.390;-1.374;2022-12-18T18:06:14;6.30;99.90
13296;DHT22;64850;60.390;-1.374;2022-12-18T18:08:41;6.20;99.90
13296;DHT22;64850;60.390;-1.374;2022-12-18T18:11:14;6.10;99.90